createdAt,value
2023-02-15T08:51:35.646Z,19.77
2023-02-15T08:53:07.407Z,19.48
2023-02-15T08:54:39.106Z,19.20
2023-02-15T08:56:11.581Z,18.33
2023-02-15T08:57:46.481Z,17.67
2023-02-15T08:59:21.041Z,17.70
2023-02-15T09:00:52.986Z,17.20
2023-02-15T09:02:24.778Z,17.05
2023-02-15T09:04:02.329Z,14.90
2023-02-15T09:05:34.221Z,13.65
2023-02-15T09:07:05.937Z,13.10
2023-02-15T09:08:38.158Z,12.63
2023-02-15T09:10:10.762Z,12.48
2023-02-15T09:11:45.396Z,11.57
2023-02-15T09:13:17.119Z,12.13
2023-02-15T09:14:48.811Z,12.13
2023-02-15T09:16:21.885Z,11.68
2023-02-15T09:17:54.177Z,11.20
2023-02-15T09:19:26.225Z,11.05
2023-02-15T09:20:58.054Z,10.95
2023-02-15T09:22:31.192Z,10.35
2023-02-15T09:24:05.762Z,10.55
2023-02-15T09:25:37.493Z,11.45
2023-02-15T09:27:09.181Z,10.70
2023-02-15T09:28:41.752Z,10.18
2023-02-15T09:30:14.009Z,10.35
2023-02-15T09:31:48.239Z,10.13
2023-02-15T09:33:19.979Z,10.13
2023-02-15T09:34:51.721Z,9.88
2023-02-15T09:36:25.837Z,10.07
2023-02-15T09:37:57.530Z,9.77
2023-02-15T09:39:29.249Z,9.93
2023-02-15T09:41:16.839Z,10.07
2023-02-15T09:43:06.578Z,10.07
2023-02-15T09:44:48.835Z,8.85
2023-02-15T09:46:46.711Z,9.80
2023-02-15T09:48:37.128Z,9.45
2023-02-15T09:50:29.973Z,9.80
2023-02-15T09:52:10.878Z,9.63
2023-02-15T09:53:54.365Z,7.25
2023-02-15T09:55:47.246Z,9.55
2023-02-15T09:57:34.178Z,9.07
2023-02-15T09:59:26.395Z,9.88
2023-02-15T10:01:23.266Z,9.27
2023-02-15T10:03:25.468Z,9.73
2023-02-15T10:05:16.341Z,8.55
2023-02-15T10:07:13.701Z,9.30
2023-02-15T10:09:00.391Z,9.13
2023-02-15T10:10:37.565Z,9.18
2023-02-15T10:12:25.257Z,10.15
2023-02-15T10:14:28.858Z,10.25
2023-02-15T10:16:21.233Z,10.02
2023-02-15T10:18:12.045Z,9.27
2023-02-15T10:19:58.831Z,9.05
2023-02-15T10:21:41.995Z,8.75
2023-02-15T10:23:22.517Z,8.95
2023-02-15T10:25:18.306Z,8.82
2023-02-15T10:26:50.871Z,9.52
2023-02-15T10:28:39.584Z,9.20
2023-02-15T10:30:16.850Z,9.85
2023-02-15T10:31:58.242Z,9.35
2023-02-15T10:35:26.401Z,9.02
2023-02-15T10:37:21.504Z,9.55
2023-02-15T10:39:31.775Z,9.95
2023-02-15T10:41:14.888Z,10.05
2023-02-15T10:43:13.005Z,9.65
2023-02-15T10:45:05.258Z,10.65
2023-02-15T10:48:44.603Z,10.35
2023-02-15T10:50:27.585Z,10.48
2023-02-15T10:52:08.155Z,11.00
2023-02-15T10:54:00.859Z,11.30
2023-02-15T10:55:38.814Z,11.52
2023-02-15T10:57:51.093Z,11.65
2023-02-15T11:00:03.121Z,11.88
2023-02-15T11:01:56.955Z,11.32
2023-02-15T11:03:41.884Z,11.80
2023-02-15T11:05:28.635Z,12.45
2023-02-15T11:07:06.285Z,12.77
2023-02-15T11:08:46.082Z,11.85
2023-02-15T11:10:35.084Z,12.82
2023-02-15T11:12:13.741Z,12.63
2023-02-15T11:13:51.257Z,13.10
2023-02-15T11:15:35.556Z,12.40
2023-02-15T11:17:12.450Z,13.48
2023-02-15T11:19:16.681Z,12.20
2023-02-15T11:21:02.741Z,12.82
2023-02-15T11:22:35.480Z,13.27
2023-02-15T11:24:15.355Z,13.68
2023-02-15T11:25:56.081Z,12.93
2023-02-15T11:27:36.001Z,13.48
2023-02-15T11:29:17.201Z,12.30
2023-02-15T11:30:54.376Z,12.70
2023-02-15T11:32:30.107Z,12.45
2023-02-15T11:34:12.170Z,12.52
2023-02-15T11:35:56.934Z,11.93
2023-02-15T11:37:36.983Z,12.55
2023-02-15T11:39:15.342Z,12.95
2023-02-15T11:40:59.971Z,11.32
2023-02-15T11:42:34.128Z,12.18
2023-02-15T11:44:16.401Z,11.13
2023-02-15T11:45:48.221Z,11.48
2023-02-15T11:47:19.956Z,12.45
2023-02-15T11:48:51.813Z,12.40
2023-02-15T11:50:26.564Z,11.65
2023-02-15T11:52:00.943Z,11.85
2023-02-15T11:53:37.137Z,11.82
2023-02-15T11:55:15.538Z,11.40
2023-02-15T11:56:47.382Z,10.90
2023-02-15T11:58:41.319Z,11.82
2023-02-15T12:00:37.150Z,11.07
2023-02-15T12:02:21.832Z,11.32
2023-02-15T12:03:58.810Z,10.85
2023-02-15T12:05:31.400Z,10.23
2023-02-15T12:07:16.289Z,10.93
2023-02-15T12:08:56.362Z,11.38
2023-02-15T12:10:39.093Z,11.20
2023-02-15T12:12:29.293Z,10.43
2023-02-15T12:14:04.821Z,10.13
2023-02-15T12:15:37.589Z,10.50
2023-02-15T12:17:14.468Z,10.75
2023-02-15T12:18:48.907Z,11.07
2023-02-15T12:20:28.887Z,11.18
2023-02-15T12:22:03.319Z,10.38
2023-02-15T12:23:42.443Z,10.30
2023-02-15T12:25:30.461Z,10.32
2023-02-15T12:27:06.180Z,11.27
2023-02-15T12:28:43.077Z,10.18
2023-02-15T12:30:24.422Z,10.20
2023-02-15T12:33:34.173Z,10.80
2023-02-15T12:35:15.101Z,9.98
2023-02-15T12:36:55.484Z,10.52
2023-02-15T12:38:29.626Z,10.63
2023-02-15T12:40:18.902Z,10.52
2023-02-15T12:41:57.836Z,11.57
2023-02-15T12:43:32.337Z,11.27
2023-02-15T12:45:21.562Z,11.95
2023-02-15T12:47:05.001Z,10.35
2023-02-15T12:48:40.696Z,10.50
2023-02-15T12:50:23.916Z,11.05
2023-02-15T12:52:01.625Z,11.00
2023-02-15T12:53:36.954Z,10.23
2023-02-15T12:55:18.496Z,10.00
2023-02-15T12:56:50.261Z,10.38
2023-02-15T12:58:27.089Z,10.23
2023-02-15T13:00:02.370Z,10.90
2023-02-15T13:01:34.682Z,11.00
2023-02-15T13:03:18.922Z,10.18
2023-02-15T13:04:51.506Z,10.60
2023-02-15T13:06:23.349Z,11.23
2023-02-15T13:07:58.844Z,11.15
2023-02-15T13:09:33.368Z,11.32
2023-02-15T13:11:11.465Z,11.48
2023-02-15T13:12:48.286Z,10.82
2023-02-15T13:14:31.585Z,11.23
2023-02-15T13:16:08.442Z,10.63
2023-02-15T13:17:40.471Z,11.77
2023-02-15T13:19:30.946Z,11.70
2023-02-15T13:21:12.190Z,11.68
2023-02-15T13:22:48.265Z,11.35
2023-02-15T13:24:33.939Z,11.25
2023-02-15T13:26:12.377Z,10.45
2023-02-15T13:27:46.135Z,11.27
2023-02-15T13:29:36.912Z,11.43
2023-02-15T13:31:19.545Z,11.10
2023-02-15T13:32:57.455Z,11.25
2023-02-15T13:34:39.974Z,11.55
2023-02-15T13:36:24.174Z,11.93
2023-02-15T13:38:07.658Z,11.63
2023-02-15T13:41:27.560Z,10.88
2023-02-15T13:43:27.299Z,10.85
2023-02-15T13:45:24.538Z,10.48
2023-02-15T13:47:20.444Z,10.30
2023-02-15T13:49:17.766Z,10.95
2023-02-15T13:51:07.925Z,11.45
2023-02-15T13:53:12.368Z,10.32
2023-02-15T13:54:53.202Z,10.88
2023-02-15T13:56:40.132Z,10.88
2023-02-15T13:58:45.028Z,10.35
2023-02-15T14:00:26.390Z,9.82
2023-02-15T14:04:09.737Z,10.23
2023-02-15T14:06:29.649Z,9.80
2023-02-15T14:08:30.951Z,10.65
2023-02-15T14:10:27.325Z,10.65
2023-02-15T14:12:17.558Z,10.00
2023-02-15T14:14:01.175Z,10.15
2023-02-15T14:15:48.307Z,10.93
2023-02-15T14:17:33.766Z,9.65
2023-02-15T14:19:20.059Z,10.32
2023-02-15T14:21:04.798Z,10.43
2023-02-15T14:22:42.713Z,10.65
2023-02-15T14:24:33.474Z,10.30
2023-02-15T14:26:25.917Z,10.70
2023-02-15T14:28:10.007Z,11.30
2023-02-15T14:29:51.965Z,10.40
2023-02-15T14:31:34.687Z,11.13
2023-02-15T14:33:16.572Z,10.82
2023-02-15T14:34:57.982Z,11.57
2023-02-15T14:38:27.346Z,10.93
2023-02-15T14:40:25.399Z,11.35
2023-02-15T14:42:08.105Z,12.00
2023-02-15T14:43:45.996Z,11.43
2023-02-15T14:45:34.190Z,12.70
2023-02-15T14:47:36.959Z,11.63
2023-02-15T14:49:23.398Z,11.65
2023-02-15T14:50:55.164Z,11.57
2023-02-15T14:52:26.962Z,12.13
2023-02-15T14:53:58.726Z,11.40
2023-02-15T14:55:37.680Z,11.90
2023-02-15T14:57:09.514Z,12.23
2023-02-15T14:58:57.378Z,12.50
2023-02-15T15:00:39.176Z,12.23
2023-02-15T15:02:16.601Z,12.15
2023-02-15T15:03:54.441Z,12.02
2023-02-15T15:05:47.281Z,12.00
2023-02-15T15:07:23.341Z,12.25
2023-02-15T15:09:28.251Z,12.50
2023-02-15T15:11:42.038Z,12.75
2023-02-15T15:13:32.931Z,12.57
2023-02-15T15:15:06.360Z,12.68
2023-02-15T15:16:38.259Z,13.30
2023-02-15T15:18:11.610Z,12.93
2023-02-15T15:19:51.975Z,13.43
2023-02-15T15:21:49.285Z,13.55
2023-02-15T15:23:21.003Z,12.65
2023-02-15T15:24:55.083Z,12.88
2023-02-15T15:26:30.122Z,12.98
2023-02-15T15:28:02.026Z,13.63
2023-02-15T15:29:41.124Z,13.27
2023-02-15T15:31:25.111Z,13.43
2023-02-15T15:32:59.592Z,13.73
2023-02-15T15:34:55.139Z,14.13
2023-02-15T15:36:36.007Z,14.02
2023-02-15T15:39:01.405Z,14.35
2023-02-15T15:41:02.155Z,14.63
2023-02-15T15:42:51.542Z,12.73
2023-02-15T15:44:50.997Z,13.70
2023-02-15T15:46:25.719Z,14.57
2023-02-15T15:48:27.782Z,15.23
2023-02-15T15:50:00.620Z,14.18
2023-02-15T15:51:34.294Z,14.77
2023-02-15T15:53:07.339Z,16.77
2023-02-15T15:54:41.855Z,15.57
2023-02-15T15:56:20.149Z,15.55
2023-02-15T15:57:56.609Z,15.02
2023-02-15T15:59:33.536Z,15.80
2023-02-15T16:01:09.756Z,15.68
2023-02-15T16:02:52.292Z,16.13
2023-02-15T16:04:31.123Z,17.27
2023-02-15T16:06:03.391Z,17.10
2023-02-15T16:07:35.475Z,16.50
2023-02-15T16:09:19.368Z,17.10
2023-02-15T16:10:51.119Z,16.10
2023-02-15T16:12:23.954Z,16.17
2023-02-15T16:13:56.680Z,16.73
2023-02-15T16:15:45.556Z,17.48
2023-02-15T16:17:32.840Z,17.15
2023-02-15T16:19:04.638Z,17.98
2023-02-15T16:20:38.014Z,18.02
2023-02-15T16:22:16.912Z,17.52
2023-02-15T16:24:21.583Z,17.60
2023-02-15T16:26:07.043Z,17.25
2023-02-15T16:27:44.703Z,17.33
2023-02-15T16:29:18.841Z,17.05
2023-02-15T16:31:17.063Z,17.80
2023-02-15T16:32:49.499Z,18.90
2023-02-15T16:34:21.274Z,16.08
2023-02-15T16:35:59.124Z,18.02
2023-02-15T16:37:35.420Z,17.75
2023-02-15T16:39:17.975Z,17.60
2023-02-15T16:40:56.637Z,16.75
2023-02-15T16:42:28.453Z,16.88
2023-02-15T16:44:17.335Z,18.98
2023-02-15T16:45:49.416Z,18.27
2023-02-15T16:47:27.338Z,17.48
2023-02-15T16:49:03.259Z,18.33
2023-02-15T16:50:38.258Z,18.45
2023-02-15T16:52:16.887Z,17.52
2023-02-15T16:53:49.763Z,17.85
2023-02-15T16:55:24.072Z,18.23
2023-02-15T16:56:58.878Z,17.00
2023-02-15T16:58:46.882Z,17.27
2023-02-15T17:00:26.043Z,18.38
2023-02-15T17:01:58.512Z,18.83
2023-02-15T17:03:30.647Z,17.58
2023-02-15T17:05:11.669Z,16.92
2023-02-15T17:06:59.167Z,16.42
2023-02-15T17:08:34.193Z,17.13
2023-02-15T17:10:27.336Z,17.95
2023-02-15T17:12:00.861Z,16.77
2023-02-15T17:13:32.888Z,17.05
2023-02-15T17:15:04.765Z,16.95
2023-02-15T17:16:38.238Z,17.65
2023-02-15T17:18:19.438Z,16.27
2023-02-15T17:19:54.482Z,17.70
2023-02-15T17:21:32.817Z,17.45
2023-02-15T17:23:05.224Z,17.70
2023-02-15T17:24:43.072Z,16.23
2023-02-15T17:26:29.879Z,18.20
2023-02-15T17:28:02.414Z,18.00
2023-02-15T17:29:38.647Z,17.65
2023-02-15T17:31:10.633Z,16.98
2023-02-15T17:32:55.254Z,18.15
2023-02-15T17:35:00.219Z,17.75
2023-02-15T17:36:32.698Z,16.85
2023-02-15T17:38:24.710Z,17.70
2023-02-15T17:39:58.958Z,17.60
2023-02-15T17:41:38.326Z,18.75
2023-02-15T17:43:10.309Z,18.88
2023-02-15T17:44:42.032Z,18.88
2023-02-15T17:46:14.376Z,19.52
2023-02-15T17:47:49.343Z,18.83
2023-02-15T17:49:27.951Z,20.05
2023-02-15T17:51:02.786Z,18.73
2023-02-15T17:52:37.661Z,19.70
2023-02-15T17:54:29.156Z,19.20
2023-02-15T17:56:10.539Z,18.23
2023-02-15T17:57:42.662Z,18.42
2023-02-15T17:59:15.322Z,18.42
2023-02-15T18:01:10.382Z,19.02
2023-02-15T18:03:01.864Z,18.90
2023-02-15T18:04:54.948Z,19.08
2023-02-15T18:06:45.707Z,18.30
2023-02-15T18:08:45.481Z,18.67
2023-02-15T18:10:38.119Z,19.02
2023-02-15T18:12:23.814Z,18.73
2023-02-15T18:14:01.363Z,20.50
2023-02-15T18:15:33.235Z,19.20
2023-02-15T18:17:05.842Z,20.15
2023-02-15T18:18:39.135Z,19.88
2023-02-15T18:20:36.920Z,19.88
2023-02-15T18:22:13.065Z,19.00
2023-02-15T18:23:45.171Z,19.35
2023-02-15T18:25:20.153Z,19.70
2023-02-15T18:26:53.803Z,20.85
2023-02-15T18:28:28.973Z,19.73
2023-02-15T18:30:01.344Z,21.08
2023-02-15T18:31:33.234Z,21.08
2023-02-15T18:33:05.423Z,21.00
2023-02-15T18:34:42.179Z,19.75
2023-02-15T18:36:20.184Z,20.35
2023-02-15T18:37:53.785Z,20.95
2023-02-15T18:39:31.616Z,18.70
2023-02-15T18:41:04.113Z,21.17
2023-02-15T18:42:36.765Z,21.42
2023-02-15T18:44:12.283Z,20.75
2023-02-15T18:45:44.351Z,20.25
2023-02-15T18:47:16.431Z,20.85
2023-02-15T18:48:48.461Z,21.13
2023-02-15T18:50:21.953Z,19.70
2023-02-15T18:51:53.985Z,21.15
2023-02-15T18:53:26.040Z,21.23
2023-02-15T18:55:01.679Z,19.90
2023-02-15T18:56:33.834Z,19.85
2023-02-15T18:58:05.774Z,21.13
2023-02-15T18:59:38.140Z,19.67
2023-02-15T19:01:21.126Z,20.50
2023-02-15T19:02:54.062Z,19.08
2023-02-15T19:04:26.147Z,18.33
2023-02-15T19:05:58.193Z,19.10
2023-02-15T19:07:32.608Z,18.95
2023-02-15T19:09:05.756Z,20.20
2023-02-15T19:10:38.075Z,18.52
2023-02-15T19:12:13.363Z,20.15
2023-02-15T19:13:48.873Z,20.85
2023-02-15T19:15:23.173Z,19.42
2023-02-15T19:16:56.663Z,19.35
2023-02-15T19:18:28.380Z,20.23
2023-02-15T19:20:00.401Z,20.92
2023-02-15T19:21:32.826Z,20.65
2023-02-15T19:23:07.330Z,20.10
2023-02-15T19:24:42.069Z,19.67
2023-02-15T19:26:13.808Z,20.05
2023-02-15T19:27:46.857Z,20.77
2023-02-15T19:29:26.174Z,19.10
2023-02-15T19:30:58.032Z,19.27
2023-02-15T19:32:31.268Z,20.60
2023-02-15T19:34:13.096Z,19.85
2023-02-15T19:35:47.814Z,20.73
2023-02-15T19:37:33.527Z,19.67
2023-02-15T19:39:05.571Z,21.05
2023-02-15T19:40:37.347Z,20.85
2023-02-15T19:42:15.319Z,21.17
2023-02-15T19:43:53.406Z,21.00
2023-02-15T19:45:27.769Z,20.42
2023-02-15T19:46:59.487Z,19.02
2023-02-15T19:48:31.183Z,21.15
2023-02-15T19:50:04.050Z,21.02
2023-02-15T19:51:36.179Z,21.02
2023-02-15T19:53:20.493Z,20.33
2023-02-15T19:54:54.860Z,20.73
2023-02-15T19:56:27.872Z,20.10
2023-02-15T19:58:01.913Z,20.55
2023-02-15T19:59:36.541Z,21.10
2023-02-15T20:01:09.316Z,22.80
2023-02-15T20:02:41.319Z,21.60
2023-02-15T20:04:14.130Z,20.98
2023-02-15T20:05:47.097Z,21.13
2023-02-15T20:07:28.571Z,22.08
2023-02-15T20:09:00.517Z,21.75
2023-02-15T20:10:32.526Z,21.08
2023-02-15T20:12:04.509Z,21.65
2023-02-15T20:13:36.489Z,21.90
2023-02-15T20:15:23.195Z,21.40
2023-02-15T20:16:54.921Z,20.52
2023-02-15T20:18:26.815Z,20.20
2023-02-15T20:19:58.522Z,21.83
2023-02-15T20:21:30.382Z,19.02
2023-02-15T20:23:02.253Z,19.33
2023-02-15T20:24:33.988Z,19.50
2023-02-15T20:26:18.533Z,21.13
2023-02-15T20:27:50.684Z,20.05
2023-02-15T20:29:22.626Z,20.33
2023-02-15T20:30:54.724Z,20.98
2023-02-15T20:32:27.005Z,19.02
2023-02-15T20:33:59.042Z,19.50
2023-02-15T20:35:30.921Z,19.83
2023-02-15T20:37:03.578Z,20.38
2023-02-15T20:38:35.576Z,22.70
2023-02-15T20:40:16.037Z,20.42
2023-02-15T20:41:48.066Z,20.67
2023-02-15T20:43:19.960Z,20.75
2023-02-15T20:44:51.639Z,21.23
2023-02-15T20:46:23.433Z,21.33
2023-02-15T20:47:55.472Z,21.48
2023-02-15T20:49:28.254Z,22.55
2023-02-15T20:51:00.332Z,21.70
2023-02-15T20:52:32.191Z,21.08
2023-02-15T20:54:12.904Z,21.42
2023-02-15T20:55:44.714Z,20.63
2023-02-15T20:57:16.962Z,21.67
2023-02-15T20:58:48.955Z,21.90
2023-02-15T21:00:27.325Z,20.42
2023-02-15T21:02:11.515Z,21.23
2023-02-15T21:03:43.403Z,20.52
2023-02-15T21:05:25.990Z,21.23
2023-02-15T21:06:57.851Z,21.10
2023-02-15T21:08:30.165Z,20.00
2023-02-15T21:10:01.962Z,19.85
2023-02-15T21:11:33.786Z,22.63
2023-02-15T21:13:05.901Z,21.30
2023-02-15T21:14:37.944Z,21.38
2023-02-15T21:16:10.044Z,20.77
2023-02-15T21:17:41.843Z,21.23
2023-02-15T21:19:16.168Z,20.80
2023-02-15T21:20:50.060Z,20.83
2023-02-15T21:22:22.046Z,21.50
2023-02-15T21:23:53.940Z,21.63
2023-02-15T21:25:32.880Z,22.45
2023-02-15T21:27:07.099Z,20.90
2023-02-15T21:28:40.399Z,20.40
2023-02-15T21:30:17.530Z,20.52
2023-02-15T21:31:49.921Z,21.23
2023-02-15T21:33:21.717Z,20.38
2023-02-15T21:34:53.613Z,20.65
2023-02-15T21:36:25.607Z,21.98
2023-02-15T21:37:57.383Z,20.08
2023-02-15T21:39:32.409Z,21.42
2023-02-15T21:41:24.260Z,20.20
2023-02-15T21:43:14.997Z,21.25
2023-02-15T21:45:05.425Z,22.27
2023-02-15T21:46:56.433Z,20.92
2023-02-15T21:48:28.574Z,21.75
2023-02-15T21:50:20.262Z,21.05
2023-02-15T21:52:10.857Z,21.67
2023-02-15T21:53:46.345Z,21.58
2023-02-15T21:55:18.389Z,20.50
2023-02-15T21:56:54.233Z,18.40
2023-02-15T21:58:28.545Z,20.08
2023-02-15T22:00:00.263Z,19.30
2023-02-15T22:01:32.449Z,20.30
2023-02-15T22:03:05.472Z,20.00
2023-02-15T22:04:37.204Z,20.85
2023-02-15T22:06:12.540Z,19.70
2023-02-15T22:07:44.747Z,19.02
2023-02-15T22:09:19.325Z,19.27
2023-02-15T22:10:51.240Z,20.63
2023-02-15T22:12:22.998Z,19.80
2023-02-15T22:13:54.734Z,20.63
2023-02-15T22:15:36.502Z,18.33
2023-02-15T22:17:20.586Z,18.98
2023-02-15T22:18:52.279Z,20.70
2023-02-15T22:20:24.770Z,19.20
2023-02-15T22:21:56.568Z,18.30
2023-02-15T22:23:28.281Z,18.20
2023-02-15T22:25:00.005Z,19.45
2023-02-15T22:26:31.722Z,19.17
2023-02-15T22:28:03.874Z,18.92
2023-02-15T22:29:35.963Z,19.92
2023-02-15T22:31:14.368Z,20.55
2023-02-15T22:32:46.199Z,18.42
2023-02-15T22:34:28.491Z,17.98
2023-02-15T22:36:01.017Z,17.65
2023-02-15T22:37:33.247Z,18.42
2023-02-15T22:39:04.966Z,16.58
2023-02-15T22:40:36.742Z,18.25
2023-02-15T22:42:27.472Z,17.67
2023-02-15T22:44:00.178Z,13.05
2023-02-15T22:45:33.142Z,17.83
2023-02-15T22:47:05.521Z,19.23
2023-02-15T22:48:37.282Z,18.17
2023-02-15T22:50:37.815Z,16.67
2023-02-15T22:52:13.672Z,17.42
2023-02-15T22:53:45.921Z,19.00
2023-02-15T22:55:19.988Z,18.70
2023-02-15T22:56:55.229Z,18.00
2023-02-15T22:58:28.706Z,18.42
2023-02-15T23:00:01.403Z,16.73
2023-02-15T23:01:37.019Z,18.23
2023-02-15T23:03:34.790Z,17.52
2023-02-15T23:05:15.051Z,18.05
2023-02-15T23:06:47.507Z,18.42
2023-02-15T23:08:19.590Z,16.42
2023-02-15T23:09:51.541Z,16.10
2023-02-15T23:11:23.754Z,17.20
2023-02-15T23:13:22.123Z,17.42
2023-02-15T23:14:56.839Z,18.02
2023-02-15T23:16:29.080Z,16.05
2023-02-15T23:18:16.420Z,16.40
2023-02-15T23:19:48.132Z,16.98
2023-02-15T23:21:23.648Z,17.83
2023-02-15T23:22:55.370Z,16.85
2023-02-15T23:24:29.720Z,16.10
2023-02-15T23:26:04.396Z,16.08
2023-02-15T23:27:54.959Z,15.68
2023-02-15T23:29:26.824Z,16.08
2023-02-15T23:30:59.843Z,16.35
2023-02-15T23:32:32.585Z,18.35
2023-02-15T23:34:14.612Z,17.23
2023-02-15T23:35:46.343Z,17.17
2023-02-15T23:37:18.414Z,15.60
2023-02-15T23:38:50.385Z,16.50
2023-02-15T23:40:40.825Z,16.33
2023-02-15T23:42:29.071Z,16.10
2023-02-15T23:44:03.788Z,14.68
2023-02-15T23:45:38.949Z,16.45
2023-02-15T23:47:20.921Z,17.48
2023-02-15T23:48:53.553Z,17.27
2023-02-15T23:50:28.118Z,16.13
2023-02-15T23:52:00.880Z,16.50
2023-02-15T23:53:33.352Z,14.93
2023-02-15T23:55:05.377Z,15.30
2023-02-15T23:56:37.341Z,14.95
2023-02-15T23:58:20.687Z,15.07
2023-02-15T23:59:52.436Z,15.88
